createdAt,value
2022-10-18T00:00:12.332Z,8.37
2022-10-18T00:02:41.216Z,7.40
2022-10-18T00:05:10.926Z,7.27
2022-10-18T00:07:42.952Z,7.00
2022-10-18T00:10:14.479Z,7.23
2022-10-18T00:12:43.357Z,10.30
2022-10-18T00:15:13.571Z,8.17
2022-10-18T00:17:43.073Z,7.97
2022-10-18T00:20:13.435Z,7.97
2022-10-18T00:22:43.362Z,6.70
2022-10-18T00:25:13.739Z,7.90
2022-10-18T00:27:42.578Z,6.50
2022-10-18T00:30:12.293Z,7.90
2022-10-18T00:32:43.423Z,8.10
2022-10-18T00:35:12.338Z,9.37
2022-10-18T00:37:41.106Z,9.13
2022-10-18T00:40:11.799Z,8.13
2022-10-18T00:42:42.100Z,9.33
2022-10-18T00:45:22.525Z,8.00
2022-10-18T00:47:57.632Z,9.07
2022-10-18T00:50:29.348Z,8.20
2022-10-18T00:53:03.000Z,9.87
2022-10-18T00:55:35.286Z,9.87
2022-10-18T00:58:07.539Z,10.10
2022-10-18T01:00:39.411Z,9.00
2022-10-18T01:03:10.174Z,9.67
2022-10-18T01:05:45.463Z,9.57
2022-10-18T01:08:35.077Z,9.67
2022-10-18T01:11:26.970Z,9.70
2022-10-18T01:14:13.137Z,10.47
2022-10-18T01:16:54.238Z,10.47
2022-10-18T01:20:20.317Z,10.53
2022-10-18T01:23:17.453Z,10.10
2022-10-18T01:26:01.089Z,11.00
2022-10-18T01:28:53.482Z,11.30
2022-10-18T01:31:28.072Z,10.50
2022-10-18T01:34:03.281Z,10.57
2022-10-18T01:36:37.461Z,11.60
2022-10-18T01:39:13.106Z,11.13
2022-10-18T01:41:46.095Z,10.07
2022-10-18T01:44:22.333Z,11.17
2022-10-18T01:46:57.457Z,10.67
2022-10-18T01:49:28.411Z,10.07
2022-10-18T01:51:57.283Z,10.80
2022-10-18T01:54:34.122Z,9.47
2022-10-18T01:57:10.939Z,11.23
2022-10-18T01:59:58.016Z,11.50
2022-10-18T02:02:46.606Z,10.87
2022-10-18T02:05:30.751Z,12.10
2022-10-18T02:08:22.894Z,11.40
2022-10-18T02:11:00.185Z,11.33
2022-10-18T02:13:38.086Z,12.00
2022-10-18T02:16:15.448Z,9.80
2022-10-18T02:18:53.303Z,9.73
2022-10-18T02:21:32.407Z,12.10
2022-10-18T02:24:04.186Z,11.53
2022-10-18T02:26:33.134Z,11.20
2022-10-18T02:29:03.006Z,11.70
2022-10-18T02:31:38.659Z,10.63
2022-10-18T02:34:21.044Z,12.13
2022-10-18T02:36:58.059Z,10.23
2022-10-18T02:39:33.961Z,11.87
2022-10-18T02:42:06.825Z,10.23
2022-10-18T02:44:36.249Z,10.97
2022-10-18T02:47:07.081Z,11.40
2022-10-18T02:49:37.348Z,11.03
2022-10-18T02:52:06.402Z,11.90
2022-10-18T02:54:35.314Z,11.40
2022-10-18T02:57:04.023Z,10.53
2022-10-18T02:59:33.638Z,11.00
2022-10-18T03:02:02.679Z,12.60
2022-10-18T03:04:31.573Z,10.67
2022-10-18T03:07:02.091Z,10.30
2022-10-18T03:09:31.120Z,12.57
2022-10-18T03:12:00.327Z,10.70
2022-10-18T03:14:32.884Z,10.47
2022-10-18T03:17:01.943Z,10.63
2022-10-18T03:19:30.979Z,10.47
2022-10-18T03:22:01.290Z,10.33
2022-10-18T03:24:36.417Z,9.97
2022-10-18T03:27:06.293Z,10.40
2022-10-18T03:29:35.289Z,12.17
2022-10-18T03:32:04.295Z,11.10
2022-10-18T03:34:33.166Z,9.93
2022-10-18T03:37:05.487Z,10.90
2022-10-18T03:39:34.954Z,9.30
2022-10-18T03:42:04.066Z,9.23
2022-10-18T03:44:33.010Z,10.53
2022-10-18T03:47:02.678Z,11.13
2022-10-18T03:52:00.524Z,11.60
2022-10-18T03:54:31.327Z,10.33
2022-10-18T03:57:00.152Z,9.67
2022-10-18T03:59:29.269Z,10.27
2022-10-18T04:01:58.300Z,9.17
2022-10-18T04:04:27.274Z,8.97
2022-10-18T04:06:55.984Z,9.17
2022-10-18T04:09:24.818Z,8.83
2022-10-18T04:11:55.156Z,10.70
2022-10-18T04:14:24.021Z,9.00
2022-10-18T04:16:53.192Z,9.10
2022-10-18T04:19:22.039Z,8.97
2022-10-18T04:21:50.704Z,9.07
2022-10-18T04:24:19.527Z,9.57
2022-10-18T04:26:48.346Z,10.87
2022-10-18T04:29:18.576Z,8.63
2022-10-18T04:31:47.617Z,11.83
2022-10-18T04:34:16.453Z,9.00
2022-10-18T04:36:45.241Z,10.00
2022-10-18T04:39:14.103Z,10.10
2022-10-18T04:41:43.114Z,9.40
2022-10-18T04:44:11.987Z,9.53
2022-10-18T04:46:42.225Z,9.13
2022-10-18T04:49:11.104Z,9.03
2022-10-18T04:51:39.884Z,9.43
2022-10-18T04:54:08.703Z,9.60
2022-10-18T04:56:37.613Z,9.30
2022-10-18T04:59:06.501Z,9.50
2022-10-18T05:01:35.345Z,7.80
2022-10-18T05:04:05.886Z,9.83
2022-10-18T05:06:34.672Z,9.00
2022-10-18T05:09:03.523Z,9.70
2022-10-18T05:11:32.390Z,10.17
2022-10-18T05:14:01.215Z,10.90
2022-10-18T05:16:30.103Z,9.77
2022-10-18T05:18:58.862Z,9.10
2022-10-18T05:21:29.102Z,10.90
2022-10-18T05:23:58.420Z,11.03
2022-10-18T05:26:30.239Z,11.53
2022-10-18T05:28:59.097Z,10.80
2022-10-18T05:31:28.017Z,10.87
2022-10-18T05:33:57.495Z,10.67
2022-10-18T05:36:26.798Z,10.50
2022-10-18T05:39:00.869Z,10.17
2022-10-18T05:41:33.400Z,12.03
2022-10-18T05:44:06.096Z,11.77
2022-10-18T05:46:35.115Z,12.00
2022-10-18T05:49:04.181Z,11.13
2022-10-18T05:51:33.137Z,11.53
2022-10-18T05:54:03.371Z,11.43
2022-10-18T05:56:32.297Z,10.97
2022-10-18T05:59:01.107Z,11.93
2022-10-18T06:01:29.965Z,11.33
2022-10-18T06:03:58.731Z,10.40
2022-10-18T06:06:27.804Z,11.23
2022-10-18T06:08:56.642Z,10.90
2022-10-18T06:11:27.571Z,11.53
2022-10-18T06:13:57.850Z,11.00
2022-10-18T06:16:32.253Z,9.77
2022-10-18T06:19:01.781Z,11.60
2022-10-18T06:21:30.860Z,10.70
2022-10-18T06:24:00.807Z,11.87
2022-10-18T06:26:31.191Z,10.47
2022-10-18T06:29:00.276Z,10.73
2022-10-18T06:31:29.562Z,10.53
2022-10-18T06:33:59.298Z,10.40
2022-10-18T06:36:28.834Z,11.17
2022-10-18T06:38:57.789Z,11.17
2022-10-18T06:41:27.203Z,10.53
2022-10-18T06:43:58.822Z,10.30
2022-10-18T06:46:28.246Z,10.27
2022-10-18T06:48:57.723Z,10.40
2022-10-18T06:51:26.684Z,13.50
2022-10-18T06:54:13.316Z,9.77
2022-10-18T06:56:45.022Z,10.37
2022-10-18T06:59:15.598Z,10.73
2022-10-18T07:01:44.848Z,10.27
2022-10-18T07:04:13.727Z,10.60
2022-10-18T07:06:42.651Z,9.17
2022-10-18T07:09:11.754Z,10.70
2022-10-18T07:11:40.829Z,9.10
2022-10-18T07:14:12.724Z,9.93
2022-10-18T07:16:46.600Z,11.07
2022-10-18T07:19:16.384Z,11.77
2022-10-18T07:21:45.305Z,10.97
2022-10-18T07:24:14.298Z,9.70
2022-10-18T07:26:43.366Z,8.93
2022-10-18T07:29:13.590Z,9.00
2022-10-18T07:31:42.562Z,10.80
2022-10-18T07:34:14.544Z,9.83
2022-10-18T07:36:43.720Z,8.77
2022-10-18T07:39:12.594Z,7.87
2022-10-18T07:41:41.426Z,9.00
2022-10-18T07:44:11.071Z,9.37
2022-10-18T07:46:40.018Z,8.80
2022-10-18T07:49:09.214Z,8.87
2022-10-18T07:51:39.424Z,8.47
2022-10-18T07:54:08.237Z,9.60
2022-10-18T07:56:37.138Z,10.13
2022-10-18T07:59:05.949Z,12.37
2022-10-18T08:01:35.879Z,10.27
2022-10-18T08:04:07.466Z,12.17
2022-10-18T08:06:39.339Z,15.40
2022-10-18T08:09:08.403Z,13.07
2022-10-18T08:11:37.587Z,11.30
2022-10-18T08:14:06.467Z,11.80
2022-10-18T08:16:35.402Z,11.70
2022-10-18T08:19:04.429Z,11.07
2022-10-18T08:21:33.566Z,11.13
2022-10-18T08:24:04.242Z,10.07
2022-10-18T08:26:33.179Z,9.53
2022-10-18T08:29:23.367Z,8.10
2022-10-18T08:31:52.022Z,8.23
2022-10-18T08:34:21.004Z,8.23
2022-10-18T08:36:49.889Z,9.47
2022-10-18T08:39:20.317Z,9.23
2022-10-18T08:42:22.845Z,8.97
2022-10-18T08:44:54.178Z,8.97
2022-10-18T08:47:32.694Z,8.93
2022-10-18T08:50:05.977Z,9.13
2022-10-18T08:55:24.955Z,8.43
2022-10-18T08:57:54.502Z,7.33
2022-10-18T09:00:26.250Z,8.57
2022-10-18T09:03:17.408Z,9.20
2022-10-18T09:05:53.103Z,8.27
2022-10-18T09:08:47.102Z,9.27
2022-10-18T09:11:39.591Z,8.73
2022-10-18T09:15:07.417Z,10.33
2022-10-18T09:17:51.770Z,9.53
2022-10-18T09:20:26.723Z,10.60
2022-10-18T09:23:05.335Z,9.20
2022-10-18T09:25:46.050Z,8.70
2022-10-18T09:28:42.307Z,8.77
2022-10-18T09:31:20.229Z,7.07
2022-10-18T09:33:58.254Z,8.53
2022-10-18T09:36:35.734Z,9.60
2022-10-18T09:39:12.483Z,8.70
2022-10-18T09:41:51.290Z,7.40
2022-10-18T09:44:27.823Z,7.20
2022-10-18T09:47:04.476Z,7.40
2022-10-18T09:49:42.654Z,7.47
2022-10-18T09:52:22.455Z,7.33
2022-10-18T09:54:57.375Z,8.97
2022-10-18T09:57:41.647Z,9.23
2022-10-18T10:00:23.302Z,9.23
2022-10-18T10:02:52.258Z,7.97
2022-10-18T10:05:21.706Z,7.20
2022-10-18T10:07:51.130Z,8.80
2022-10-18T10:10:26.089Z,8.27
2022-10-18T10:13:07.109Z,7.30
2022-10-18T10:15:42.440Z,8.10
2022-10-18T10:18:22.862Z,7.20
2022-10-18T10:20:56.132Z,9.10
2022-10-18T10:23:30.499Z,8.67
2022-10-18T10:26:03.434Z,8.70
2022-10-18T10:28:37.910Z,9.37
2022-10-18T10:31:29.386Z,9.40
2022-10-18T10:34:03.690Z,10.23
2022-10-18T10:36:35.223Z,9.60
2022-10-18T10:39:12.792Z,9.53
2022-10-18T10:41:43.053Z,10.53
2022-10-18T10:44:19.638Z,10.80
2022-10-18T10:46:52.272Z,10.17
2022-10-18T10:49:41.388Z,11.00
2022-10-18T10:52:29.045Z,13.10
2022-10-18T10:55:06.114Z,14.60
2022-10-18T10:57:48.606Z,10.30
2022-10-18T11:00:44.063Z,11.43
2022-10-18T11:03:33.763Z,10.50
2022-10-18T11:06:02.964Z,10.23
2022-10-18T11:08:40.552Z,8.50
2022-10-18T11:11:26.833Z,9.90
2022-10-18T11:14:24.835Z,10.67
2022-10-18T11:17:08.305Z,10.10
2022-10-18T11:19:52.943Z,9.43
2022-10-18T11:22:27.218Z,11.67
2022-10-18T11:24:56.531Z,10.97
2022-10-18T11:27:32.270Z,10.50
2022-10-18T11:30:27.855Z,10.53
2022-10-18T11:33:14.716Z,10.83
2022-10-18T11:35:53.780Z,13.40
2022-10-18T11:38:35.934Z,11.70
2022-10-18T11:41:39.905Z,9.97
2022-10-18T11:44:28.873Z,13.13
2022-10-18T11:47:09.416Z,10.87
2022-10-18T11:50:03.000Z,10.93
2022-10-18T11:52:47.196Z,10.30
2022-10-18T11:55:33.437Z,9.50
2022-10-18T11:58:24.053Z,10.50
2022-10-18T12:01:00.319Z,11.60
2022-10-18T12:03:40.140Z,11.37
2022-10-18T12:06:16.366Z,10.20
2022-10-18T12:08:52.070Z,12.10
2022-10-18T12:11:28.069Z,10.17
2022-10-18T12:14:00.976Z,11.77
2022-10-18T12:16:50.354Z,11.90
2022-10-18T12:19:26.767Z,12.13
2022-10-18T12:22:03.889Z,10.40
2022-10-18T12:24:37.030Z,10.73
2022-10-18T12:27:06.573Z,8.40
2022-10-18T12:29:50.382Z,8.70
2022-10-18T12:32:28.250Z,10.80
2022-10-18T12:35:02.336Z,9.47
2022-10-18T12:37:57.399Z,10.43
2022-10-18T12:40:38.296Z,9.07
2022-10-18T12:43:12.337Z,9.10
2022-10-18T12:45:54.087Z,8.97
2022-10-18T12:48:38.811Z,9.90
2022-10-18T12:51:16.273Z,9.53
2022-10-18T12:53:48.161Z,9.00
2022-10-18T12:56:41.825Z,8.27
2022-10-18T12:59:47.074Z,9.40
2022-10-18T13:02:30.822Z,8.73
2022-10-18T13:05:02.576Z,7.87
2022-10-18T13:07:45.500Z,8.63
2022-10-18T13:10:38.318Z,9.70
2022-10-18T13:13:40.661Z,8.63
2022-10-18T13:16:38.435Z,9.70
2022-10-18T13:19:27.005Z,10.00
2022-10-18T13:22:17.597Z,9.37
2022-10-18T13:25:04.329Z,11.77
2022-10-18T13:27:49.718Z,9.30
2022-10-18T13:30:53.040Z,10.70
2022-10-18T13:33:35.138Z,10.33
2022-10-18T13:36:06.841Z,10.30
2022-10-18T13:38:48.154Z,8.67
2022-10-18T13:44:26.107Z,9.33
2022-10-18T13:47:37.661Z,8.73
2022-10-18T13:50:35.491Z,9.17
2022-10-18T13:53:44.890Z,9.40
2022-10-18T13:56:58.847Z,8.50
2022-10-18T14:00:04.961Z,8.30
2022-10-18T14:03:44.602Z,8.80
2022-10-18T14:06:19.467Z,9.83
2022-10-18T14:08:57.990Z,10.33
2022-10-18T14:11:35.397Z,11.33
2022-10-18T14:14:17.952Z,11.40
2022-10-18T14:16:55.612Z,10.57
2022-10-18T14:19:35.753Z,9.87
2022-10-18T14:22:15.634Z,11.37
2022-10-18T14:24:50.338Z,10.03
2022-10-18T14:27:22.793Z,9.50
2022-10-18T14:30:10.269Z,11.07
2022-10-18T14:32:39.665Z,9.43
2022-10-18T14:35:32.104Z,10.37
2022-10-18T14:38:02.968Z,11.37
2022-10-18T14:40:39.132Z,10.07
2022-10-18T14:43:14.433Z,10.23
2022-10-18T14:45:46.889Z,11.00
2022-10-18T14:48:19.060Z,10.20
2022-10-18T14:51:00.310Z,11.10
2022-10-18T14:53:36.382Z,11.50
2022-10-18T14:56:08.612Z,9.20
2022-10-18T14:58:38.791Z,10.93
2022-10-18T15:01:07.957Z,12.70
2022-10-18T15:03:39.321Z,10.80
2022-10-18T15:06:09.797Z,10.73
2022-10-18T15:08:42.245Z,10.73
2022-10-18T15:11:14.883Z,9.47
2022-10-18T15:13:51.771Z,11.27
2022-10-18T15:16:25.639Z,11.60
2022-10-18T15:19:08.816Z,11.07
2022-10-18T15:21:39.051Z,11.40
2022-10-18T15:24:33.464Z,11.93
2022-10-18T15:27:27.732Z,11.77
2022-10-18T15:29:57.076Z,11.13
2022-10-18T15:32:30.353Z,11.20
2022-10-18T15:35:13.760Z,12.13
2022-10-18T15:37:47.715Z,11.93
2022-10-18T15:40:50.030Z,10.90
2022-10-18T15:43:38.726Z,13.10
2022-10-18T15:46:08.590Z,11.10
2022-10-18T15:48:42.678Z,12.80
2022-10-18T15:51:38.491Z,11.07
2022-10-18T15:54:19.830Z,10.20
2022-10-18T15:56:48.797Z,11.90
2022-10-18T15:59:27.461Z,11.00
2022-10-18T16:01:57.080Z,12.57
2022-10-18T16:04:30.304Z,13.37
2022-10-18T16:07:01.254Z,12.97
2022-10-18T16:09:33.875Z,12.67
2022-10-18T16:12:08.456Z,10.93
2022-10-18T16:14:43.199Z,13.97
2022-10-18T16:17:17.921Z,12.37
2022-10-18T16:19:50.426Z,12.90
2022-10-18T16:22:23.483Z,14.00
2022-10-18T16:24:54.431Z,15.27
2022-10-18T16:27:25.205Z,14.50
2022-10-18T16:29:54.700Z,15.97
2022-10-18T16:32:23.878Z,14.17
2022-10-18T16:34:52.945Z,15.30
2022-10-18T16:37:22.348Z,15.07
2022-10-18T16:39:53.185Z,15.17
2022-10-18T16:42:22.321Z,15.93
2022-10-18T16:44:51.537Z,15.30
2022-10-18T16:47:20.706Z,13.80
2022-10-18T16:49:50.468Z,15.63
2022-10-18T16:52:19.859Z,16.37
2022-10-18T16:54:49.138Z,14.63
2022-10-18T16:57:19.940Z,15.83
2022-10-18T16:59:49.042Z,16.23
2022-10-18T17:02:18.305Z,16.30
2022-10-18T17:04:47.524Z,17.47
2022-10-18T17:07:25.809Z,15.33
2022-10-18T17:09:55.166Z,15.60
2022-10-18T17:12:25.787Z,15.07
2022-10-18T17:14:55.187Z,16.53
2022-10-18T17:17:24.399Z,14.97
2022-10-18T17:19:53.787Z,15.93
2022-10-18T17:22:23.101Z,16.17
2022-10-18T17:24:52.805Z,15.20
2022-10-18T17:27:22.227Z,17.37
2022-10-18T17:29:53.181Z,14.47
2022-10-18T17:32:22.342Z,15.07
2022-10-18T17:34:51.582Z,17.03
2022-10-18T17:37:21.723Z,16.73
2022-10-18T17:39:51.133Z,16.77
2022-10-18T17:42:29.012Z,17.40
2022-10-18T17:45:00.967Z,14.73
2022-10-18T17:47:30.220Z,16.30
2022-10-18T17:49:59.506Z,16.10
2022-10-18T17:52:31.414Z,17.50
2022-10-18T17:55:00.904Z,16.83
2022-10-18T17:57:30.366Z,18.27
2022-10-18T18:00:03.114Z,16.73
2022-10-18T18:02:42.639Z,16.93
2022-10-18T18:05:12.857Z,15.60
2022-10-18T18:07:41.995Z,17.83
2022-10-18T18:10:12.133Z,16.07
2022-10-18T18:12:43.528Z,18.03
2022-10-18T18:15:16.819Z,18.93
2022-10-18T18:17:56.856Z,16.50
2022-10-18T18:20:27.671Z,18.70
2022-10-18T18:22:56.767Z,17.33
2022-10-18T18:25:25.874Z,17.53
2022-10-18T18:27:56.521Z,17.80
2022-10-18T18:30:27.061Z,17.30
2022-10-18T18:32:56.301Z,17.87
2022-10-18T18:35:25.515Z,16.87
2022-10-18T18:37:54.671Z,17.93
2022-10-18T18:40:24.014Z,16.70
2022-10-18T18:43:07.125Z,17.43
2022-10-18T18:45:42.888Z,16.80
2022-10-18T18:48:12.728Z,17.30
2022-10-18T18:50:50.184Z,17.10
2022-10-18T18:53:20.011Z,13.10
2022-10-18T18:55:50.925Z,13.30
2022-10-18T18:58:20.616Z,12.27
2022-10-18T19:00:51.442Z,13.70
2022-10-18T19:03:20.647Z,13.17
2022-10-18T19:05:49.794Z,11.70
2022-10-18T19:08:18.918Z,12.67
2022-10-18T19:10:49.717Z,11.93
2022-10-18T19:13:20.831Z,13.00
2022-10-18T19:15:51.530Z,10.90
2022-10-18T19:18:23.837Z,14.80
2022-10-18T19:20:53.503Z,11.93
2022-10-18T19:23:22.847Z,12.70
2022-10-18T19:25:51.874Z,13.10
2022-10-18T19:28:20.966Z,11.83
2022-10-18T19:30:53.236Z,12.27
2022-10-18T19:33:41.089Z,18.20
2022-10-18T19:36:11.865Z,10.90
2022-10-18T19:38:41.100Z,13.83
2022-10-18T19:41:10.527Z,10.87
2022-10-18T19:43:40.101Z,10.70
2022-10-18T19:46:11.336Z,11.50
2022-10-18T19:48:40.692Z,10.93
2022-10-18T19:51:12.254Z,9.70
2022-10-18T19:53:45.125Z,10.87
2022-10-18T19:56:21.495Z,10.57
2022-10-18T19:58:52.214Z,10.43
2022-10-18T20:01:22.882Z,9.90
2022-10-18T20:03:52.362Z,9.47
2022-10-18T20:06:22.979Z,9.90
2022-10-18T20:08:53.288Z,10.30
2022-10-18T20:11:25.439Z,9.73
2022-10-18T20:13:57.691Z,11.13
2022-10-18T20:16:30.840Z,11.20
2022-10-18T20:19:02.171Z,10.67
2022-10-18T20:21:36.005Z,9.80
2022-10-18T20:24:06.037Z,10.37
2022-10-18T20:26:36.197Z,10.70
2022-10-18T20:29:07.612Z,8.90
2022-10-18T20:31:39.499Z,8.90
2022-10-18T20:34:13.300Z,8.87
2022-10-18T20:36:43.185Z,8.30
2022-10-18T20:39:12.275Z,9.33
2022-10-18T20:41:42.969Z,8.23
2022-10-18T20:44:16.907Z,12.10
2022-10-18T20:46:47.847Z,8.77
2022-10-18T20:49:18.525Z,8.87
2022-10-18T20:51:47.880Z,8.63
2022-10-18T20:54:16.887Z,9.57
2022-10-18T20:56:45.997Z,10.60
2022-10-18T20:59:15.042Z,7.80
2022-10-18T21:01:44.342Z,8.43
2022-10-18T21:04:15.161Z,7.30
2022-10-18T21:06:45.551Z,8.00
2022-10-18T21:09:18.220Z,7.10
2022-10-18T21:11:50.088Z,7.70
2022-10-18T21:14:21.778Z,8.40
2022-10-18T21:16:52.812Z,7.13
2022-10-18T21:19:26.211Z,7.40
2022-10-18T21:21:58.775Z,6.77
2022-10-18T21:24:29.549Z,7.10
2022-10-18T21:27:00.223Z,6.97
2022-10-18T21:29:31.045Z,5.80
2022-10-18T21:32:01.111Z,7.50
2022-10-18T21:34:31.695Z,6.27
2022-10-18T21:37:00.762Z,6.97
2022-10-18T21:39:30.358Z,5.87
2022-10-18T21:41:59.450Z,6.07
2022-10-18T21:44:28.673Z,4.50
2022-10-18T21:46:58.825Z,6.07
2022-10-18T21:49:30.075Z,5.20
2022-10-18T21:52:03.506Z,6.10
2022-10-18T21:54:32.710Z,5.23
2022-10-18T21:57:01.951Z,6.60
2022-10-18T21:59:31.067Z,5.13
2022-10-18T22:02:01.379Z,3.90
2022-10-18T22:04:35.671Z,4.70
2022-10-18T22:07:06.408Z,4.63
2022-10-18T22:09:35.363Z,5.50
2022-10-18T22:12:04.924Z,4.00
2022-10-18T22:14:33.686Z,4.00
2022-10-18T22:17:02.767Z,4.80
2022-10-18T22:19:31.889Z,3.67
2022-10-18T22:22:00.711Z,4.10
2022-10-18T22:24:30.927Z,3.57
2022-10-18T22:26:59.770Z,4.20
2022-10-18T22:29:28.655Z,3.80
2022-10-18T22:31:57.501Z,4.27
2022-10-18T22:34:28.516Z,4.07
2022-10-18T22:36:57.793Z,4.90
2022-10-18T22:39:26.674Z,3.47
2022-10-18T22:41:57.465Z,2.80
2022-10-18T22:44:26.650Z,4.17
2022-10-18T22:46:55.551Z,4.03
2022-10-18T22:49:24.349Z,2.90
2022-10-18T22:51:53.393Z,3.03
2022-10-18T22:54:22.225Z,3.17
2022-10-18T22:56:50.981Z,2.67
2022-10-18T22:59:21.427Z,2.93
2022-10-18T23:01:50.338Z,2.87
2022-10-18T23:04:19.222Z,2.33
2022-10-18T23:06:48.219Z,2.50
2022-10-18T23:09:17.037Z,4.10
2022-10-18T23:11:47.181Z,3.13
2022-10-18T23:14:15.980Z,3.23
2022-10-18T23:16:46.492Z,3.60
2022-10-18T23:19:17.333Z,3.23
2022-10-18T23:21:46.355Z,2.90
2022-10-18T23:24:15.195Z,3.17
2022-10-18T23:26:43.963Z,4.23
2022-10-18T23:29:12.828Z,3.70
2022-10-18T23:31:41.699Z,3.77
2022-10-18T23:34:13.638Z,3.30
2022-10-18T23:39:16.311Z,2.97
2022-10-18T23:41:45.080Z,4.40
2022-10-18T23:44:14.731Z,3.27
2022-10-18T23:46:43.746Z,3.33
2022-10-18T23:49:14.420Z,3.53
2022-10-18T23:51:43.307Z,2.53
2022-10-18T23:54:12.136Z,3.80
2022-10-18T23:56:40.834Z,2.77
2022-10-18T23:59:09.646Z,2.77
